createdAt,value
2022-09-30T00:02:06.834Z,87.49
2022-09-30T00:04:42.772Z,87.49
2022-09-30T00:07:10.758Z,87.49
2022-09-30T00:09:41.433Z,87.50
2022-09-30T00:12:14.048Z,87.50
2022-09-30T00:14:41.813Z,87.52
2022-09-30T00:17:09.995Z,87.52
2022-09-30T00:19:37.989Z,87.52
2022-09-30T00:22:11.416Z,87.53
2022-09-30T00:24:39.714Z,87.53
2022-09-30T00:27:10.030Z,87.51
2022-09-30T00:29:37.963Z,87.50
2022-09-30T00:32:05.885Z,87.49
2022-09-30T00:34:37.761Z,87.49
2022-09-30T00:37:06.222Z,87.49
2022-09-30T00:39:39.171Z,87.51
2022-09-30T00:42:14.396Z,87.52
2022-09-30T00:44:46.407Z,87.54
2022-09-30T00:47:24.891Z,87.55
2022-09-30T00:49:56.151Z,87.44
2022-09-30T00:52:24.751Z,87.44
2022-09-30T00:54:57.630Z,87.46
2022-09-30T00:57:26.539Z,87.51
2022-09-30T00:59:54.945Z,87.55
2022-09-30T01:02:25.551Z,87.55
2022-09-30T01:04:54.963Z,87.60
2022-09-30T01:07:28.335Z,87.63
2022-09-30T01:10:01.292Z,87.65
2022-09-30T01:12:30.211Z,87.68
2022-09-30T01:15:05.142Z,87.71
2022-09-30T01:18:02.672Z,87.74
2022-09-30T01:20:44.803Z,87.80
2022-09-30T01:23:27.989Z,87.77
2022-09-30T01:26:31.059Z,87.77
2022-09-30T01:29:26.793Z,87.79
2022-09-30T01:32:32.562Z,87.80
2022-09-30T01:35:11.210Z,87.83
2022-09-30T01:38:17.844Z,87.83
2022-09-30T01:41:14.286Z,87.87
2022-09-30T01:44:03.287Z,87.86
2022-09-30T01:46:44.797Z,87.65
2022-09-30T01:49:28.577Z,87.47
2022-09-30T01:51:56.424Z,87.39
2022-09-30T01:54:57.451Z,87.43
2022-09-30T01:57:37.744Z,87.63
2022-09-30T02:00:15.434Z,87.73
2022-09-30T02:02:55.085Z,87.81
2022-09-30T02:05:31.962Z,87.89
2022-09-30T02:08:09.611Z,87.95
2022-09-30T02:10:48.696Z,88.03
2022-09-30T02:13:25.236Z,88.08
2022-09-30T02:15:59.907Z,88.13
2022-09-30T02:18:35.182Z,88.17
2022-09-30T02:21:06.986Z,88.20
2022-09-30T02:23:42.626Z,88.24
2022-09-30T02:26:25.405Z,88.26
2022-09-30T02:29:13.476Z,88.29
2022-09-30T02:31:45.452Z,88.28
2022-09-30T02:34:22.584Z,88.27
2022-09-30T02:37:32.072Z,88.23
2022-09-30T02:40:21.450Z,88.27
2022-09-30T02:42:53.503Z,88.31
2022-09-30T02:45:25.772Z,88.33
2022-09-30T02:48:15.449Z,88.36
2022-09-30T02:50:52.225Z,88.41
2022-09-30T02:53:26.019Z,88.45
2022-09-30T02:56:12.504Z,88.49
2022-09-30T02:58:46.451Z,88.52
2022-09-30T03:01:19.116Z,88.55
2022-09-30T03:04:02.001Z,88.59
2022-09-30T03:06:34.201Z,88.63
2022-09-30T03:09:05.619Z,88.65
2022-09-30T03:11:37.429Z,88.69
2022-09-30T03:14:35.382Z,88.72
2022-09-30T03:17:41.990Z,88.72
2022-09-30T03:20:42.047Z,88.75
2022-09-30T03:23:44.487Z,88.73
2022-09-30T03:26:44.116Z,88.77
2022-09-30T03:29:25.087Z,88.82
2022-09-30T03:32:00.443Z,88.84
2022-09-30T03:35:03.676Z,88.85
2022-09-30T03:37:58.692Z,88.89
2022-09-30T03:40:56.243Z,88.93
2022-09-30T03:43:51.453Z,88.97
2022-09-30T03:46:31.677Z,89.01
2022-09-30T03:49:08.665Z,89.05
2022-09-30T03:51:44.483Z,89.07
2022-09-30T03:54:17.115Z,89.07
2022-09-30T03:56:46.132Z,89.09
2022-09-30T03:59:30.809Z,89.08
2022-09-30T04:01:58.811Z,89.11
2022-09-30T04:04:30.290Z,89.14
2022-09-30T04:06:59.281Z,89.16
2022-09-30T04:09:29.168Z,89.19
2022-09-30T04:11:57.327Z,89.22
2022-09-30T04:14:25.247Z,89.20
2022-09-30T04:16:54.189Z,89.21
2022-09-30T04:19:22.027Z,89.20
2022-09-30T04:21:55.123Z,89.25
2022-09-30T04:24:24.607Z,89.24
2022-09-30T04:26:52.636Z,89.28
2022-09-30T04:29:23.238Z,89.32
2022-09-30T04:31:54.019Z,89.36
2022-09-30T04:34:23.229Z,89.39
2022-09-30T04:36:57.861Z,89.41
2022-09-30T04:39:25.826Z,89.41
2022-09-30T04:41:57.995Z,89.37
2022-09-30T04:44:28.082Z,89.37
2022-09-30T04:46:55.741Z,89.41
2022-09-30T04:49:27.600Z,89.47
2022-09-30T04:51:59.603Z,89.51
2022-09-30T04:54:27.507Z,89.55
2022-09-30T04:56:56.006Z,89.54
2022-09-30T04:59:23.803Z,89.58
2022-09-30T05:01:54.575Z,89.62
2022-09-30T05:04:23.242Z,89.65
2022-09-30T05:06:52.313Z,89.65
2022-09-30T05:09:20.905Z,89.68
2022-09-30T05:11:52.751Z,89.71
2022-09-30T05:14:23.434Z,89.72
2022-09-30T05:16:51.297Z,89.74
2022-09-30T05:19:21.018Z,89.71
2022-09-30T05:21:48.837Z,89.70
2022-09-30T05:24:23.039Z,89.65
2022-09-30T05:26:54.911Z,89.65
2022-09-30T05:29:22.950Z,89.66
2022-09-30T05:31:52.067Z,89.68
2022-09-30T05:34:21.516Z,89.69
2022-09-30T05:36:50.829Z,89.66
2022-09-30T05:39:18.879Z,89.64
2022-09-30T05:41:50.737Z,89.65
2022-09-30T05:44:21.789Z,89.66
2022-09-30T05:46:49.860Z,89.68
2022-09-30T05:49:20.338Z,89.69
2022-09-30T05:51:48.532Z,89.71
2022-09-30T05:54:16.443Z,89.72
2022-09-30T05:56:46.947Z,89.72
2022-09-30T05:59:17.456Z,89.75
2022-09-30T06:01:49.761Z,89.77
2022-09-30T06:04:21.967Z,89.78
2022-09-30T06:06:50.045Z,89.81
2022-09-30T06:09:22.343Z,89.81
2022-09-30T06:11:50.299Z,89.78
2022-09-30T06:14:23.874Z,89.78
2022-09-30T06:16:51.793Z,89.78
2022-09-30T06:19:24.079Z,89.78
2022-09-30T06:21:52.007Z,89.79
2022-09-30T06:24:24.914Z,89.80
2022-09-30T06:26:53.101Z,89.82
2022-09-30T06:29:23.500Z,89.83
2022-09-30T06:31:55.551Z,89.83
2022-09-30T06:34:27.233Z,89.82
2022-09-30T06:36:55.189Z,89.84
2022-09-30T06:39:23.099Z,89.84
2022-09-30T06:41:51.500Z,89.87
2022-09-30T06:44:19.386Z,89.86
2022-09-30T06:46:53.626Z,89.84
2022-09-30T06:49:24.010Z,89.83
2022-09-30T06:51:52.671Z,89.82
2022-09-30T06:54:23.191Z,89.81
2022-09-30T06:56:53.869Z,89.82
2022-09-30T06:59:23.428Z,89.81
2022-09-30T07:01:57.210Z,89.82
2022-09-30T07:04:26.273Z,89.84
2022-09-30T07:06:59.423Z,89.84
2022-09-30T07:09:27.561Z,89.81
2022-09-30T07:11:59.087Z,89.76
2022-09-30T07:14:34.412Z,89.72
2022-09-30T07:17:08.655Z,89.66
2022-09-30T07:19:36.409Z,89.63
2022-09-30T07:22:22.998Z,89.59
2022-09-30T07:24:58.380Z,89.57
2022-09-30T07:27:32.676Z,89.52
2022-09-30T07:30:09.528Z,89.48
2022-09-30T07:32:46.444Z,89.45
2022-09-30T07:35:14.805Z,89.42
2022-09-30T07:37:50.335Z,89.35
2022-09-30T07:40:18.368Z,89.29
2022-09-30T07:42:48.877Z,89.25
2022-09-30T07:45:23.579Z,89.14
2022-09-30T07:47:56.169Z,89.03
2022-09-30T07:50:24.194Z,88.93
2022-09-30T07:52:57.528Z,88.85
2022-09-30T07:55:25.458Z,88.78
2022-09-30T07:57:54.385Z,88.62
2022-09-30T08:00:41.679Z,88.44
2022-09-30T08:03:11.446Z,88.24
2022-09-30T08:05:52.770Z,88.05
2022-09-30T08:08:20.577Z,87.85
2022-09-30T08:10:52.513Z,87.69
2022-09-30T08:13:22.833Z,87.49
2022-09-30T08:15:50.742Z,87.34
2022-09-30T08:18:25.512Z,87.02
2022-09-30T08:20:57.843Z,86.82
2022-09-30T08:23:32.201Z,86.66
2022-09-30T08:26:08.783Z,86.41
2022-09-30T08:28:41.401Z,86.19
2022-09-30T08:31:19.764Z,86.01
2022-09-30T08:33:48.919Z,85.87
2022-09-30T08:36:27.231Z,85.73
2022-09-30T08:38:55.183Z,85.64
2022-09-30T08:41:43.950Z,85.58
2022-09-30T08:44:33.220Z,85.64
2022-09-30T08:47:48.232Z,85.61
2022-09-30T08:50:31.463Z,85.70
2022-09-30T08:53:08.978Z,85.72
2022-09-30T08:55:45.649Z,85.74
2022-09-30T08:58:31.923Z,85.70
2022-09-30T09:01:37.346Z,85.67
2022-09-30T09:04:09.072Z,85.63
2022-09-30T09:07:12.012Z,85.68
2022-09-30T09:09:59.967Z,85.74
2022-09-30T09:13:05.462Z,85.82
2022-09-30T09:15:42.456Z,85.87
2022-09-30T09:18:34.863Z,85.94
2022-09-30T09:21:26.265Z,86.07
2022-09-30T09:24:01.205Z,86.21
2022-09-30T09:26:38.990Z,86.32
2022-09-30T09:29:15.632Z,86.43
2022-09-30T09:31:43.817Z,86.52
2022-09-30T09:34:20.026Z,86.55
2022-09-30T09:37:18.989Z,86.52
2022-09-30T09:40:04.731Z,86.52
2022-09-30T09:42:56.607Z,86.49
2022-09-30T09:46:13.594Z,86.47
2022-09-30T09:48:41.369Z,86.47
2022-09-30T09:51:38.753Z,86.48
2022-09-30T09:54:16.922Z,86.49
2022-09-30T09:56:44.776Z,86.51
2022-09-30T09:59:22.309Z,86.45
2022-09-30T10:01:56.457Z,86.53
2022-09-30T10:04:33.221Z,86.60
2022-09-30T10:07:19.069Z,86.63
2022-09-30T10:09:47.061Z,86.64
2022-09-30T10:12:14.933Z,86.61
2022-09-30T10:15:03.963Z,86.78
2022-09-30T10:17:37.814Z,87.03
2022-09-30T10:20:27.771Z,87.21
2022-09-30T10:23:22.548Z,87.32
2022-09-30T10:26:08.467Z,87.20
2022-09-30T10:28:46.999Z,87.21
2022-09-30T10:31:23.884Z,87.39
2022-09-30T10:34:23.578Z,87.50
2022-09-30T10:36:57.466Z,87.50
2022-09-30T10:39:40.367Z,87.58
2022-09-30T10:42:29.539Z,87.67
2022-09-30T10:45:14.206Z,87.78
2022-09-30T10:47:52.291Z,87.86
2022-09-30T10:50:27.847Z,87.94
2022-09-30T10:53:14.350Z,88.01
2022-09-30T10:55:47.542Z,88.11
2022-09-30T10:58:52.507Z,88.13
2022-09-30T11:01:26.512Z,88.20
2022-09-30T11:04:06.317Z,88.25
2022-09-30T11:06:44.148Z,88.27
2022-09-30T11:09:26.214Z,88.30
2022-09-30T11:12:05.531Z,88.38
2022-09-30T11:14:46.035Z,88.38
2022-09-30T11:17:42.908Z,88.45
2022-09-30T11:20:33.431Z,88.48
2022-09-30T11:23:10.247Z,88.45
2022-09-30T11:26:07.928Z,88.37
2022-09-30T11:29:12.948Z,88.44
2022-09-30T11:32:18.114Z,88.45
2022-09-30T11:35:07.561Z,88.50
2022-09-30T11:37:47.761Z,88.51
2022-09-30T11:40:39.032Z,88.52
2022-09-30T11:43:25.606Z,88.56
2022-09-30T11:46:19.201Z,88.58
2022-09-30T11:49:28.321Z,88.60
2022-09-30T11:52:14.889Z,88.61
2022-09-30T11:55:32.016Z,88.61
2022-09-30T11:58:36.217Z,88.57
2022-09-30T12:01:21.859Z,88.60
2022-09-30T12:04:10.362Z,88.60
2022-09-30T12:06:57.879Z,88.64
2022-09-30T12:09:46.508Z,88.66
2022-09-30T12:12:20.993Z,88.64
2022-09-30T12:15:07.659Z,88.61
2022-09-30T12:17:51.114Z,88.64
2022-09-30T12:20:32.373Z,88.64
2022-09-30T12:23:30.570Z,88.62
2022-09-30T12:26:07.591Z,88.61
2022-09-30T12:29:05.781Z,88.56
2022-09-30T12:32:01.374Z,88.55
2022-09-30T12:34:52.582Z,88.54
2022-09-30T12:37:56.336Z,88.53
2022-09-30T12:40:57.709Z,88.52
2022-09-30T12:44:06.223Z,88.52
2022-09-30T12:47:08.346Z,88.52
2022-09-30T12:49:42.282Z,88.56
2022-09-30T12:52:21.574Z,88.53
2022-09-30T12:54:52.441Z,88.55
2022-09-30T12:57:26.595Z,88.54
2022-09-30T12:59:58.160Z,88.58
2022-09-30T13:02:36.605Z,88.64
2022-09-30T13:05:27.846Z,88.68
2022-09-30T13:08:05.334Z,88.74
2022-09-30T13:10:40.101Z,88.79
2022-09-30T13:13:10.532Z,88.81
2022-09-30T13:15:46.702Z,88.83
2022-09-30T13:18:20.809Z,88.84
2022-09-30T13:21:08.299Z,88.83
2022-09-30T13:23:53.302Z,88.83
2022-09-30T13:26:32.134Z,88.82
2022-09-30T13:29:04.320Z,88.81
2022-09-30T13:31:46.299Z,88.81
2022-09-30T13:34:35.588Z,88.83
2022-09-30T13:37:06.403Z,88.84
2022-09-30T13:39:34.247Z,88.84
2022-09-30T13:42:22.306Z,88.84
2022-09-30T13:45:08.546Z,88.88
2022-09-30T13:48:02.464Z,88.90
2022-09-30T13:50:34.602Z,88.92
2022-09-30T13:53:13.130Z,88.95
2022-09-30T13:55:51.117Z,88.99
2022-09-30T13:58:30.971Z,88.99
2022-09-30T14:01:19.357Z,89.01
2022-09-30T14:03:51.159Z,89.03
2022-09-30T14:06:54.496Z,88.99
2022-09-30T14:10:08.382Z,89.00
2022-09-30T14:12:48.882Z,89.05
2022-09-30T14:15:40.593Z,89.03
2022-09-30T14:18:48.344Z,88.98
2022-09-30T14:21:48.423Z,88.96
2022-09-30T14:24:24.793Z,88.88
2022-09-30T14:27:00.251Z,88.99
2022-09-30T14:29:59.394Z,89.07
2022-09-30T14:32:30.576Z,89.20
2022-09-30T14:35:06.431Z,89.23
2022-09-30T14:37:51.666Z,89.30
2022-09-30T14:40:32.079Z,89.37
2022-09-30T14:43:18.318Z,89.37
2022-09-30T14:45:54.147Z,89.37
2022-09-30T14:48:31.920Z,89.40
2022-09-30T14:51:22.705Z,89.42
2022-09-30T14:54:04.492Z,89.45
2022-09-30T14:56:41.977Z,89.43
2022-09-30T14:59:20.692Z,89.44
2022-09-30T15:02:04.116Z,89.58
2022-09-30T15:04:43.336Z,89.63
2022-09-30T15:07:16.188Z,89.63
2022-09-30T15:09:50.278Z,89.65
2022-09-30T15:12:28.729Z,89.60
2022-09-30T15:15:01.765Z,89.67
2022-09-30T15:17:37.717Z,89.60
2022-09-30T15:20:24.277Z,89.71
2022-09-30T15:22:56.601Z,89.82
2022-09-30T15:25:29.692Z,89.88
2022-09-30T15:28:02.065Z,89.62
2022-09-30T15:30:29.951Z,89.85
2022-09-30T15:33:07.577Z,90.06
2022-09-30T15:35:35.562Z,90.16
2022-09-30T15:38:17.471Z,90.34
2022-09-30T15:41:03.337Z,90.24
2022-09-30T15:43:51.719Z,90.13
2022-09-30T15:46:28.488Z,90.37
2022-09-30T15:49:31.457Z,90.44
2022-09-30T15:52:40.539Z,90.38
2022-09-30T15:55:36.371Z,90.46
2022-09-30T15:58:26.956Z,90.46
2022-09-30T16:01:19.574Z,90.29
2022-09-30T16:03:59.484Z,90.23
2022-09-30T16:06:36.507Z,90.20
2022-09-30T16:09:34.081Z,90.27
2022-09-30T16:12:13.676Z,90.24
2022-09-30T16:14:58.095Z,90.20
2022-09-30T16:17:29.188Z,90.15
2022-09-30T16:20:25.892Z,89.91
2022-09-30T16:23:01.651Z,89.64
2022-09-30T16:25:35.131Z,89.62
2022-09-30T16:28:14.540Z,89.53
2022-09-30T16:30:51.865Z,89.45
2022-09-30T16:33:24.067Z,89.27
2022-09-30T16:35:56.132Z,89.24
2022-09-30T16:38:24.068Z,89.12
2022-09-30T16:40:51.808Z,89.06
2022-09-30T16:43:27.674Z,89.13
2022-09-30T16:46:02.378Z,89.09
2022-09-30T16:48:30.148Z,89.14
2022-09-30T16:51:20.827Z,89.14
2022-09-30T16:53:48.597Z,89.15
2022-09-30T16:56:25.039Z,89.27
2022-09-30T16:58:53.051Z,89.34
2022-09-30T17:01:28.677Z,89.28
2022-09-30T17:04:01.745Z,89.24
2022-09-30T17:06:36.060Z,89.20
2022-09-30T17:09:08.981Z,89.25
2022-09-30T17:11:42.187Z,89.18
2022-09-30T17:14:09.868Z,89.25
2022-09-30T17:16:42.409Z,89.31
2022-09-30T17:19:12.776Z,89.61
2022-09-30T17:21:40.715Z,89.62
2022-09-30T17:24:08.685Z,89.52
2022-09-30T17:26:43.571Z,89.51
2022-09-30T17:29:33.067Z,89.52
2022-09-30T17:32:08.123Z,89.48
2022-09-30T17:34:35.890Z,89.57
2022-09-30T17:37:03.707Z,89.46
2022-09-30T17:39:32.204Z,89.56
2022-09-30T17:42:22.726Z,89.76
2022-09-30T17:44:55.564Z,89.82
2022-09-30T17:47:28.139Z,89.80
2022-09-30T17:49:56.251Z,89.61
2022-09-30T17:52:38.530Z,89.57
2022-09-30T17:55:06.677Z,89.56
2022-09-30T17:57:39.977Z,89.71
2022-09-30T18:00:12.712Z,89.75
2022-09-30T18:02:42.802Z,89.59
2022-09-30T18:05:14.895Z,89.56
2022-09-30T18:07:43.253Z,89.51
2022-09-30T18:10:15.490Z,89.54
2022-09-30T18:12:43.176Z,89.57
2022-09-30T18:15:14.024Z,89.72
2022-09-30T18:17:46.052Z,89.74
2022-09-30T18:20:20.716Z,89.79
2022-09-30T18:22:55.406Z,89.88
2022-09-30T18:25:27.718Z,89.91
2022-09-30T18:28:03.229Z,89.91
2022-09-30T18:30:31.201Z,89.83
2022-09-30T18:33:07.266Z,89.80
2022-09-30T18:35:40.027Z,89.73
2022-09-30T18:38:07.768Z,89.63
2022-09-30T18:40:36.361Z,89.53
2022-09-30T18:43:06.710Z,89.39
2022-09-30T18:45:40.320Z,89.33
2022-09-30T18:48:12.158Z,89.25
2022-09-30T18:50:40.212Z,89.14
2022-09-30T18:53:13.006Z,89.07
2022-09-30T18:55:48.147Z,88.98
2022-09-30T18:58:18.303Z,88.92
2022-09-30T19:00:47.036Z,88.89
2022-09-30T19:03:23.274Z,88.84
2022-09-30T19:05:50.906Z,88.69
2022-09-30T19:08:18.816Z,88.55
2022-09-30T19:10:54.744Z,88.49
2022-09-30T19:13:29.375Z,88.40
2022-09-30T19:16:06.521Z,88.36
2022-09-30T19:18:38.673Z,88.38
2022-09-30T19:21:13.271Z,88.36
2022-09-30T19:23:48.440Z,88.31
2022-09-30T19:26:16.196Z,88.30
2022-09-30T19:28:46.551Z,88.29
2022-09-30T19:31:21.673Z,88.28
2022-09-30T19:33:57.138Z,88.25
2022-09-30T19:36:31.896Z,88.26
2022-09-30T19:39:12.362Z,88.26
2022-09-30T19:41:44.632Z,88.24
2022-09-30T19:44:20.863Z,88.29
2022-09-30T19:46:54.947Z,88.32
2022-09-30T19:49:27.921Z,88.34
2022-09-30T19:51:55.788Z,88.36
2022-09-30T19:54:39.772Z,88.38
2022-09-30T19:57:17.486Z,88.40
2022-09-30T19:59:45.500Z,88.39
2022-09-30T20:02:17.284Z,88.39
2022-09-30T20:04:48.885Z,88.39
2022-09-30T20:07:16.601Z,88.39
2022-09-30T20:09:48.777Z,88.39
2022-09-30T20:12:16.680Z,88.39
2022-09-30T20:15:07.485Z,88.40
2022-09-30T20:17:41.917Z,88.41
2022-09-30T20:20:28.472Z,88.41
2022-09-30T20:23:06.026Z,88.42
2022-09-30T20:25:39.423Z,88.44
2022-09-30T20:28:11.730Z,88.45
2022-09-30T20:30:47.983Z,88.43
2022-09-30T20:33:24.639Z,88.45
2022-09-30T20:35:59.321Z,88.47
2022-09-30T20:38:27.261Z,88.47
2022-09-30T20:41:03.517Z,88.52
2022-09-30T20:43:36.754Z,88.51
2022-09-30T20:46:09.960Z,88.50
2022-09-30T20:48:42.688Z,88.50
2022-09-30T20:51:20.232Z,88.50
2022-09-30T20:53:56.932Z,88.50
2022-09-30T20:56:39.308Z,88.48
2022-09-30T20:59:20.842Z,88.43
2022-09-30T21:01:48.624Z,88.40
2022-09-30T21:04:19.277Z,88.39
2022-09-30T21:06:48.034Z,88.40
2022-09-30T21:09:17.945Z,88.37
2022-09-30T21:11:45.919Z,88.34
2022-09-30T21:14:20.904Z,88.29
2022-09-30T21:16:48.672Z,88.18
2022-09-30T21:19:25.759Z,88.07
2022-09-30T21:22:00.036Z,88.01
2022-09-30T21:24:28.593Z,87.88
2022-09-30T21:26:56.522Z,87.78
2022-09-30T21:29:24.427Z,87.71
2022-09-30T21:31:53.069Z,87.63
2022-09-30T21:34:22.390Z,87.44
2022-09-30T21:36:50.203Z,87.34
2022-09-30T21:39:17.932Z,87.26
2022-09-30T21:41:47.260Z,87.15
2022-09-30T21:44:16.461Z,87.06
2022-09-30T21:46:48.636Z,87.03
2022-09-30T21:49:17.872Z,87.01
2022-09-30T21:51:50.693Z,87.02
2022-09-30T21:54:21.251Z,86.98
2022-09-30T21:56:50.804Z,86.98
2022-09-30T21:59:19.719Z,87.00
2022-09-30T22:01:48.945Z,87.00
2022-09-30T22:04:17.599Z,87.04
2022-09-30T22:06:48.067Z,87.06
2022-09-30T22:09:16.967Z,87.11
2022-09-30T22:11:44.911Z,87.22
2022-09-30T22:14:12.842Z,87.26
2022-09-30T22:16:42.092Z,87.37
2022-09-30T22:19:15.744Z,87.49
2022-09-30T22:21:43.651Z,87.57
2022-09-30T22:24:11.742Z,87.60
2022-09-30T22:26:42.337Z,87.64
2022-09-30T22:29:12.733Z,87.69
2022-09-30T22:31:40.712Z,87.73
2022-09-30T22:34:33.893Z,87.76
2022-09-30T22:37:21.485Z,87.85
2022-09-30T22:39:49.139Z,87.92
2022-09-30T22:42:19.098Z,88.00
2022-09-30T22:44:49.521Z,88.06
2022-09-30T22:47:17.431Z,88.13
2022-09-30T22:49:48.019Z,88.21
2022-09-30T22:52:16.192Z,88.26
2022-09-30T22:54:45.796Z,88.29
2022-09-30T22:57:13.779Z,88.31
2022-09-30T22:59:44.357Z,88.33
2022-09-30T23:02:12.322Z,88.36
2022-09-30T23:04:42.537Z,88.36
2022-09-30T23:07:11.872Z,88.39
2022-09-30T23:09:41.060Z,88.39
2022-09-30T23:12:10.765Z,88.41
2022-09-30T23:14:40.094Z,88.48
2022-09-30T23:17:08.063Z,88.51
2022-09-30T23:19:37.257Z,88.55
2022-09-30T23:22:06.166Z,88.57
2022-09-30T23:24:34.189Z,88.59
2022-09-30T23:27:03.522Z,88.60
2022-09-30T23:29:32.688Z,88.62
2022-09-30T23:32:00.889Z,88.63
2022-09-30T23:34:32.530Z,88.61
2022-09-30T23:37:01.503Z,88.60
2022-09-30T23:39:32.136Z,88.59
2022-09-30T23:42:00.055Z,88.62
2022-09-30T23:44:28.692Z,88.62
2022-09-30T23:47:16.163Z,88.61
2022-09-30T23:49:43.920Z,88.63
2022-09-30T23:52:15.054Z,88.64
2022-09-30T23:54:44.591Z,88.66
2022-09-30T23:57:13.879Z,88.63
2022-09-30T23:59:41.714Z,88.62
